Duns, United Kingdom
Current Conditions -  °F | °C
As of 9:50 AM on Sunday 23 Nov 2014 (Local Time) from EGQM Reporting Station
Broken Clouds Broken Clouds  
Wind Chill: 43°   Ceiling: 14000
Heat Index: 46°   Visibility: 6mi
Dew Point: 41°   Wind: 7mph
Humidity: 81%   Direction: 270°W
Pressure: 30"   Gusts: NA
Location:  55.78°N, 2.35°W
Report Text: EGQM 230950Z AUTO 27006KT 9999 BKN140/// 08/05 Q1016
Loading
Personal Weather Stations






























Interactive Weather Map New forecast layout! Learn more

10-Day Weather Forecast

Advertisements
Track Severe Weather on mobile